Time;durP1;ratioP1;P1;durP2;ratioP2;P2;SDS_P1;SDS_P2;PMS_P1;PMS_P2;Temp;Humidity;BMP_temperature;BMP_pressure;BME280_temperature;BME280_humidity;BME280_pressure;Samples;Min_cycle;Max_cycle;Signal;HPM_P1;HPM_P2
2022/05/01 00:02:24;;;;;;;13.10;7.32;;;;;;;;;;8363628;28;20045;-77
2022/05/01 00:06:27;;;;;;;10.65;6.85;;;;;;;;;;8363875;28;20118;-78
2022/05/01 00:10:30;;;;;;;16.02;6.70;;;;;;;;;;8364145;28;20045;-77
2022/05/01 00:14:34;;;;;;;13.20;7.13;;;;;;;;;;8363479;28;20107;-78
2022/05/01 00:18:37;;;;;;;14.05;7.00;;;;;;;;;;8363929;28;20052;-79
2022/05/01 00:22:39;;;;;;;11.73;7.18;;;;;;;;;;8363530;28;20053;-78
2022/05/01 00:26:42;;;;;;;12.52;6.35;;;;;;;;;;8363397;28;20056;-78
2022/05/01 00:30:46;;;;;;;13.85;6.93;;;;;;;;;;8363690;28;20423;-79
2022/05/01 00:39:08;;;;;;;13.70;6.93;;;;;;;;;;8363284;28;20045;-78
2022/05/01 00:43:11;;;;;;;17.17;7.35;;;;;;;;;;8363574;28;20041;-76
2022/05/01 00:47:16;;;;;;;;;;;;;;;;;;8363419;28;20048;-77
2022/05/01 00:51:20;;;;;;;16.50;6.35;;;;;;;;;;8363684;28;19943;-77
2022/05/01 00:55:23;;;;;;;13.70;6.95;;;;;;;;;;8362948;28;20057;-76
2022/05/01 00:59:26;;;;;;;16.33;7.05;;;;;;;;;;8363227;28;20049;-78
2022/05/01 01:03:29;;;;;;;17.20;6.68;;;;;;;;;;8363191;28;20122;-78
2022/05/01 01:07:33;;;;;;;14.60;6.70;;;;;;;;;;8362679;28;20049;-78
2022/05/01 01:11:36;;;;;;;13.15;6.30;;;;;;;;;;8363279;28;20480;-76
2022/05/01 01:15:39;;;;;;;11.02;5.97;;;;;;;;;;8363073;28;20041;-80
2022/05/01 01:19:43;;;;;;;13.15;6.13;;;;;;;;;;8365665;28;20084;-77
2022/05/01 01:23:47;;;;;;;16.65;6.63;;;;;;;;;;8368463;28;20045;-77
2022/05/01 01:27:50;;;;;;;12.45;6.07;;;;;;;;;;8368779;28;20175;-78
2022/05/01 01:31:55;;;;;;;18.13;9.10;;;;;;;;;;8368119;28;20049;-78
2022/05/01 01:36:00;;;;;;;14.18;6.80;;;;;;;;;;8368116;28;20040;-77
2022/05/01 01:40:04;;;;;;;18.63;8.73;;;;;;;;;;8368576;28;20049;-77
2022/05/01 01:44:08;;;;;;;16.90;7.65;;;;;;;;;;8368329;28;20048;-77
2022/05/01 01:48:12;;;;;;;19.38;8.35;;;;;;;;;;8368871;28;20464;-78
2022/05/01 01:52:14;;;;;;;20.00;8.50;;;;;;;;;;8367468;28;20049;-77
2022/05/01 01:56:18;;;;;;;20.13;8.57;;;;;;;;;;8367821;28;20049;-79
2022/05/01 02:00:20;;;;;;;15.02;8.00;;;;;;;;;;8367469;28;20056;-79
2022/05/01 02:04:23;;;;;;;16.38;7.35;;;;;;;;;;8367319;28;20044;-78
2022/05/01 02:08:26;;;;;;;17.50;7.10;;;;;;;;;;8367235;28;20484;-78
2022/05/01 02:12:30;;;;;;;14.38;7.40;;;;;;;;;;8367487;28;20049;-78
2022/05/01 02:16:32;;;;;;;18.60;7.30;;;;;;;;;;8366850;28;20065;-79
2022/05/01 02:24:51;;;;;;;12.38;6.93;;;;;;;;;;8366145;28;20178;-77
2022/05/01 02:28:56;;;;;;;13.93;6.95;;;;;;;;;;8366228;28;20049;-79
2022/05/01 02:32:58;;;;;;;14.93;8.02;;;;;;;;;;8365269;28;20136;-77
2022/05/01 02:37:01;;;;;;;15.18;7.75;;;;;;;;;;8366787;28;20095;-78
2022/05/01 02:41:03;;;;;;;11.27;6.85;;;;;;;;;;8366476;28;20458;-78
2022/05/01 02:45:09;;;;;;;18.75;8.23;;;;;;;;;;8366426;28;20045;-78
2022/05/01 02:49:12;;;;;;;15.65;7.22;;;;;;;;;;8365715;28;20048;-77
2022/05/01 02:53:15;;;;;;;13.93;7.47;;;;;;;;;;8365846;28;20057;-77
2022/05/01 02:57:17;;;;;;;15.80;8.55;;;;;;;;;;8365728;28;20469;-78
2022/05/01 03:01:21;;;;;;;12.68;7.68;;;;;;;;;;8365885;28;20473;-77
2022/05/01 03:05:25;;;;;;;39.85;17.85;;;;;;;;;;8365544;28;20049;-78
2022/05/01 03:09:28;;;;;;;32.53;16.45;;;;;;;;;;8365133;28;20049;-77
2022/05/01 03:13:30;;;;;;;;;;;;;;;;;;8365546;28;20049;-77
2022/05/01 03:26:10;;;;;;;53.17;24.45;;;;;;;;;;8364614;28;20037;-77
2022/05/01 03:30:19;;;;;;;26.83;14.10;;;;;;;;;;8364487;28;20183;-78
2022/05/01 03:34:26;;;;;;;18.88;10.10;;;;;;;;;;8364479;28;20052;-78
2022/05/01 03:38:28;;;;;;;18.48;9.85;;;;;;;;;;8364572;28;20064;-78
2022/05/01 03:42:31;;;;;;;21.17;9.38;;;;;;;;;;8363844;28;20477;-78
2022/05/01 03:46:33;;;;;;;23.45;9.77;;;;;;;;;;8364187;28;20057;-78
2022/05/01 03:50:38;;;;;;;20.27;9.75;;;;;;;;;;8364418;28;20483;-80
2022/05/01 03:54:40;;;;;;;16.88;8.73;;;;;;;;;;8364084;28;20045;-77
2022/05/01 03:58:43;;;;;;;16.90;9.48;;;;;;;;;;8364142;28;20069;-78
2022/05/01 04:02:46;;;;;;;20.23;9.30;;;;;;;;;;8363813;28;20057;-78
2022/05/01 04:06:50;;;;;;;16.98;8.52;;;;;;;;;;8363758;28;20128;-77
2022/05/01 04:10:53;;;;;;;24.10;9.63;;;;;;;;;;8363918;28;20048;-78
2022/05/01 04:14:58;;;;;;;120.50;42.22;;;;;;;;;;8363453;28;20119;-77
2022/05/01 04:19:00;;;;;;;35.67;18.02;;;;;;;;;;8363987;28;20152;-76
2022/05/01 04:23:05;;;;;;;26.58;12.30;;;;;;;;;;8364194;28;20049;-78
2022/05/01 04:27:08;;;;;;;26.80;12.32;;;;;;;;;;8363810;28;20049;-77
2022/05/01 04:31:11;;;;;;;25.40;12.40;;;;;;;;;;8363792;28;20408;-78
2022/05/01 04:35:13;;;;;;;18.33;10.18;;;;;;;;;;8363138;28;20099;-78
2022/05/01 04:39:17;;;;;;;25.20;12.13;;;;;;;;;;8363098;28;20053;-77
2022/05/01 04:43:21;;;;;;;21.30;11.43;;;;;;;;;;8363495;28;20073;-77
2022/05/01 04:47:27;;;;;;;16.15;8.95;;;;;;;;;;8362550;28;20048;-77
2022/05/01 04:51:30;;;;;;;16.15;9.48;;;;;;;;;;8363096;28;20045;-77
2022/05/01 04:55:34;;;;;;;12.00;7.85;;;;;;;;;;8362821;28;20055;-77
2022/05/01 04:59:38;;;;;;;15.50;8.55;;;;;;;;;;8368531;28;20059;-77
2022/05/01 05:03:41;;;;;;;17.40;8.18;;;;;;;;;;8329865;28;20053;-77
2022/05/01 05:07:45;;;;;;;17.58;9.45;;;;;;;;;;8352536;28;20099;-78
2022/05/01 05:11:52;;;;;;;21.95;13.55;;;;;;;;;;8338644;28;20134;-76
2022/05/01 05:16:00;;;;;;;44.28;24.80;;;;;;;;;;8349502;28;20492;-77
2022/05/01 05:20:06;;;;;;;28.15;16.02;;;;;;;;;;8368373;28;20106;-77
2022/05/01 05:24:12;;;;;;;29.45;20.98;;;;;;;;;;8368634;28;20208;-76
2022/05/01 05:28:21;;;;;;;54.35;32.13;;;;;;;;;;8369064;28;20403;-77
2022/05/01 05:32:28;;;;;;;83.70;41.45;;;;;;;;;;8368311;28;20119;-77
2022/05/01 05:36:33;;;;;;;70.88;28.83;;;;;;;;;;8367794;28;20041;-77
2022/05/01 05:40:41;;;;;;;42.28;19.13;;;;;;;;;;8368549;28;20045;-77
2022/05/01 05:44:54;;;;;;;14.85;7.88;;;;;;;;;;8336151;28;20458;-78
2022/05/01 05:49:10;;;;;;;25.33;11.82;;;;;;;;;;8334448;28;20107;-76
2022/05/01 05:53:17;;;;;;;36.03;18.00;;;;;;;;;;8335015;28;20045;-77
2022/05/01 05:57:30;;;;;;;34.42;17.25;;;;;;;;;;8333656;28;20076;-77
2022/05/01 06:01:40;;;;;;;24.25;13.32;;;;;;;;;;8335635;28;20076;-77
2022/05/01 06:05:44;;;;;;;26.30;16.05;;;;;;;;;;8333185;28;20485;-77
2022/05/01 06:09:47;;;;;;;29.02;15.65;;;;;;;;;;8332835;28;20102;-76
2022/05/01 06:13:51;;;;;;;52.75;24.30;;;;;;;;;;8331984;28;20053;-77
2022/05/01 06:17:56;;;;;;;12.73;7.03;;;;;;;;;;8333979;28;20041;-77
2022/05/01 06:21:58;;;;;;;10.95;6.75;;;;;;;;;;8334036;28;20045;-77
2022/05/01 06:26:03;;;;;;;25.30;15.90;;;;;;;;;;8333876;28;20045;-77
2022/05/01 06:30:07;;;;;;;6.35;3.38;;;;;;;;;;8333838;28;20081;-77
2022/05/01 06:34:13;;;;;;;6.88;3.28;;;;;;;;;;8333379;28;20053;-77
2022/05/01 06:38:16;;;;;;;4.07;3.03;;;;;;;;;;8333779;28;20548;-78
2022/05/01 06:42:19;;;;;;;6.32;3.17;;;;;;;;;;8333437;28;20046;-78
2022/05/01 06:46:22;;;;;;;7.88;3.17;;;;;;;;;;8355010;28;20045;-78
2022/05/01 06:50:30;;;;;;;5.60;2.97;;;;;;;;;;8365292;28;20045;-78
2022/05/01 06:54:33;;;;;;;5.82;2.90;;;;;;;;;;8366200;28;20389;-78
2022/05/01 06:58:36;;;;;;;7.82;3.08;;;;;;;;;;8365112;28;20048;-77
2022/05/01 07:02:45;;;;;;;7.28;5.40;;;;;;;;;;8364876;28;20045;-78
2022/05/01 07:06:50;;;;;;;6.10;3.57;;;;;;;;;;8365313;28;20048;-77
2022/05/01 07:10:52;;;;;;;5.00;3.20;;;;;;;;;;8365144;28;20049;-77
2022/05/01 07:14:55;;;;;;;6.10;3.70;;;;;;;;;;8365067;28;20062;-77
2022/05/01 07:18:58;;;;;;;6.68;2.97;;;;;;;;;;8361955;28;20041;-77
2022/05/01 07:23:03;;;;;;;7.90;3.25;;;;;;;;;;8364124;28;20126;-76
2022/05/01 07:27:09;;;;;;;5.80;3.33;;;;;;;;;;8353794;28;20042;-77
2022/05/01 07:31:13;;;;;;;7.20;3.50;;;;;;;;;;8356710;28;20629;-79
2022/05/01 07:35:16;;;;;;;8.13;4.10;;;;;;;;;;8361081;28;20132;-77
2022/05/01 07:39:21;;;;;;;7.30;3.20;;;;;;;;;;8352326;28;20060;-77
2022/05/01 07:43:24;;;;;;;4.70;3.17;;;;;;;;;;8357151;28;20056;-77
2022/05/01 07:47:27;;;;;;;7.63;4.50;;;;;;;;;;8363391;28;20116;-76
2022/05/01 07:51:29;;;;;;;7.40;4.30;;;;;;;;;;8352395;28;20057;-76
2022/05/01 07:55:34;;;;;;;6.22;4.00;;;;;;;;;;8349172;28;20041;-76
2022/05/01 07:59:37;;;;;;;6.93;4.30;;;;;;;;;;8357793;28;20400;-77
2022/05/01 08:08:05;;;;;;;7.88;4.90;;;;;;;;;;8348476;28;20069;-78
2022/05/01 08:12:17;;;;;;;8.18;4.28;;;;;;;;;;8362186;28;20068;-78
2022/05/01 08:16:22;;;;;;;6.80;4.22;;;;;;;;;;8363295;28;20102;-78
2022/05/01 08:24:54;;;;;;;7.97;4.53;;;;;;;;;;8331736;28;20045;-77
2022/05/01 08:29:06;;;;;;;5.55;4.07;;;;;;;;;;8335796;28;20500;-78
2022/05/01 08:33:18;;;;;;;7.07;4.40;;;;;;;;;;8338655;28;20474;-79
2022/05/01 08:37:26;;;;;;;6.53;3.70;;;;;;;;;;8337508;28;20053;-78
2022/05/01 08:41:33;;;;;;;7.25;3.60;;;;;;;;;;8340279;28;20041;-78
2022/05/01 08:45:48;;;;;;;6.88;3.80;;;;;;;;;;8363177;28;20045;-78
2022/05/01 08:49:58;;;;;;;7.88;4.90;;;;;;;;;;8368748;28;20416;-78
2022/05/01 08:54:12;;;;;;;9.88;3.83;;;;;;;;;;8369279;28;20071;-77
2022/05/01 08:58:28;;;;;;;6.63;3.50;;;;;;;;;;8369090;28;20056;-79
2022/05/01 09:02:44;;;;;;;7.43;3.85;;;;;;;;;;8368997;28;20809;-78
2022/05/01 09:06:53;;;;;;;5.55;3.97;;;;;;;;;;8368707;28;20477;-78
2022/05/01 09:12:49;;;;;;;6.28;4.00;;;;;;;;;;8368916;28;20124;-78
2022/05/01 09:15:37;;;;;;;7.03;4.03;;;;;;;;;;8368400;28;20408;-78
2022/05/01 09:19:48;;;;;;;6.90;4.05;;;;;;;;;;8356687;28;20045;-77
2022/05/01 09:23:51;;;;;;;6.60;3.80;;;;;;;;;;8334151;28;20049;-77
2022/05/01 09:27:57;;;;;;;7.10;4.00;;;;;;;;;;8335825;28;20069;-77
2022/05/01 09:32:01;;;;;;;6.90;3.72;;;;;;;;;;8335725;28;20405;-77
2022/05/01 09:36:07;;;;;;;6.13;3.78;;;;;;;;;;8335241;28;20057;-77
2022/05/01 09:40:13;;;;;;;7.28;4.10;;;;;;;;;;8334434;28;20076;-78
2022/05/01 09:44:18;;;;;;;6.20;3.80;;;;;;;;;;8334940;28;20045;-78
2022/05/01 09:48:22;;;;;;;7.20;3.65;;;;;;;;;;8334758;28;20132;-77
2022/05/01 09:52:26;;;;;;;7.05;3.55;;;;;;;;;;8334574;28;20048;-77
2022/05/01 09:56:43;;;;;;;8.05;3.40;;;;;;;;;;8334573;28;20049;-78
2022/05/01 10:00:48;;;;;;;7.55;3.55;;;;;;;;;;8334236;28;20501;-78
2022/05/01 10:04:55;;;;;;;5.85;3.42;;;;;;;;;;8334174;28;20065;-77
2022/05/01 10:09:01;;;;;;;5.70;3.10;;;;;;;;;;8334186;28;20111;-77
2022/05/01 10:13:04;;;;;;;7.35;3.40;;;;;;;;;;8333878;28;20065;-77
2022/05/01 10:17:08;;;;;;;8.48;3.65;;;;;;;;;;8333842;28;20052;-77
2022/05/01 10:21:11;;;;;;;5.30;3.55;;;;;;;;;;8333705;28;20049;-77
2022/05/01 10:25:17;;;;;;;6.45;3.70;;;;;;;;;;8333657;28;20111;-77
2022/05/01 10:32:20;;;;;;;6.05;3.70;;;;;;;;;;8333621;28;20045;-77
2022/05/01 10:34:29;;;;;;;8.20;3.67;;;;;;;;;;8333682;28;20049;-76
2022/05/01 10:38:40;;;;;;;6.32;3.33;;;;;;;;;;8333253;28;20041;-77
2022/05/01 10:42:45;;;;;;;;;;;;;;;;;;8333501;28;20049;-77
2022/05/01 10:46:54;;;;;;;5.60;3.53;;;;;;;;;;8333416;28;19921;-77
2022/05/01 10:51:41;;;;;;;5.75;3.17;;;;;;;;;;8332270;28;20103;-77
2022/05/01 10:55:45;;;;;;;9.02;3.80;;;;;;;;;;8322359;28;20449;-76
2022/05/01 10:59:52;;;;;;;4.97;2.60;;;;;;;;;;8332303;28;20493;-77
2022/05/01 11:03:57;;;;;;;6.40;3.08;;;;;;;;;;8352308;28;20041;-76
2022/05/01 11:08:02;;;;;;;9.48;2.85;;;;;;;;;;8365320;28;20048;-76
2022/05/01 11:12:08;;;;;;;8.93;3.40;;;;;;;;;;8365059;28;20049;-76
2022/05/01 11:16:12;;;;;;;6.07;2.70;;;;;;;;;;8364883;28;20061;-77
2022/05/01 11:20:32;;;;;;;6.25;3.20;;;;;;;;;;8364906;28;20044;-76
2022/05/01 11:24:42;;;;;;;5.53;2.60;;;;;;;;;;8364744;28;20087;-77
2022/05/01 11:28:52;;;;;;;6.28;2.40;;;;;;;;;;8364759;28;20053;-77
2022/05/01 11:33:05;;;;;;;5.88;2.50;;;;;;;;;;8364643;28;20049;-77
2022/05/01 11:37:10;;;;;;;4.95;2.72;;;;;;;;;;8364727;28;20048;-76
2022/05/01 11:41:17;;;;;;;5.07;2.38;;;;;;;;;;8364753;28;20151;-76
2022/05/01 11:45:23;;;;;;;9.88;2.33;;;;;;;;;;8364456;28;20451;-76
2022/05/01 11:49:29;;;;;;;5.93;2.47;;;;;;;;;;8364010;28;20048;-76
2022/05/01 11:53:34;;;;;;;5.97;2.58;;;;;;;;;;8363841;28;20041;-77
2022/05/01 12:06:30;;;;;;;5.70;2.77;;;;;;;;;;8363701;28;20041;-77
2022/05/01 12:10:33;;;;;;;8.73;6.50;;;;;;;;;;8363663;28;20560;-77
2022/05/01 12:14:37;;;;;;;11.13;6.25;;;;;;;;;;8363663;28;20045;-77
2022/05/01 12:18:50;;;;;;;5.82;2.72;;;;;;;;;;8363471;28;20049;-76
2022/05/01 12:22:56;;;;;;;4.88;2.90;;;;;;;;;;8363796;28;20481;-77
2022/05/01 12:27:01;;;;;;;6.40;3.08;;;;;;;;;;8363689;28;20105;-77
2022/05/01 12:31:07;;;;;;;7.05;2.70;;;;;;;;;;8363284;28;20049;-76
2022/05/01 12:35:10;;;;;;;5.93;2.65;;;;;;;;;;8363869;28;20044;-77
2022/05/01 12:39:21;;;;;;;5.07;2.58;;;;;;;;;;8363105;28;20045;-77
2022/05/01 12:47:47;;;;;;;6.30;2.38;;;;;;;;;;8363569;28;20049;-77
2022/05/01 12:51:50;;;;;;;4.55;2.40;;;;;;;;;;8363521;28;20064;-76
2022/05/01 12:55:56;;;;;;;4.57;2.33;;;;;;;;;;8363241;28;20055;-76
2022/05/01 12:59:59;;;;;;;4.13;2.20;;;;;;;;;;8362740;28;20049;-76
2022/05/01 13:04:03;;;;;;;4.30;2.17;;;;;;;;;;8362810;28;20041;-76
2022/05/01 13:08:17;;;;;;;4.50;2.20;;;;;;;;;;8362523;28;20136;-76
2022/05/01 13:12:30;;;;;;;4.57;2.50;;;;;;;;;;8363126;28;20049;-77
2022/05/01 13:16:44;;;;;;;6.43;2.33;;;;;;;;;;8367273;28;20045;-76
2022/05/01 13:20:47;;;;;;;7.10;2.30;;;;;;;;;;8368637;28;20045;-76
2022/05/01 13:24:53;;;;;;;6.47;2.42;;;;;;;;;;8368485;28;20045;-76
2022/05/01 13:28:59;;;;;;;4.57;2.55;;;;;;;;;;8368387;28;20053;-76
2022/05/01 13:33:02;;;;;;;4.50;2.65;;;;;;;;;;8368559;28;20481;-77
2022/05/01 13:37:06;;;;;;;5.35;2.60;;;;;;;;;;8368453;28;20137;-76
2022/05/01 13:45:31;;;;;;;5.35;2.88;;;;;;;;;;8368281;28;20451;-77
2022/05/01 13:49:36;;;;;;;5.07;3.10;;;;;;;;;;8367735;28;20400;-76
2022/05/01 13:53:39;;;;;;;4.00;2.53;;;;;;;;;;8367389;28;20053;-76
2022/05/01 13:57:43;;;;;;;4.82;2.65;;;;;;;;;;8367543;28;20053;-76
2022/05/01 14:01:51;;;;;;;8.30;2.97;;;;;;;;;;8367957;28;20458;-76
2022/05/01 14:05:55;;;;;;;5.65;2.88;;;;;;;;;;8367629;28;20492;-77
2022/05/01 14:09:58;;;;;;;7.50;2.92;;;;;;;;;;8366865;28;20056;-76
2022/05/01 14:14:02;;;;;;;6.25;3.47;;;;;;;;;;8367268;28;20122;-76
2022/05/01 14:18:09;;;;;;;4.55;2.72;;;;;;;;;;8366871;28;20103;-76
2022/05/01 14:22:14;;;;;;;4.72;2.60;;;;;;;;;;8367218;28;20075;-77
2022/05/01 14:26:17;;;;;;;6.18;3.00;;;;;;;;;;8367708;28;20072;-77
2022/05/01 14:30:21;;;;;;;6.00;2.45;;;;;;;;;;8366698;28;20135;-76
2022/05/01 14:34:37;;;;;;;3.20;2.45;;;;;;;;;;8366186;28;20107;-76
2022/05/01 14:38:47;;;;;;;4.25;2.70;;;;;;;;;;8366885;28;20431;-77
2022/05/01 14:42:51;;;;;;;10.23;5.00;;;;;;;;;;8365042;28;20416;-76
2022/05/01 14:46:56;;;;;;;7.57;3.58;;;;;;;;;;8378144;28;20079;-77
2022/05/01 14:51:02;;;;;;;7.82;3.90;;;;;;;;;;8366774;28;20053;-77
2022/05/01 14:55:09;;;;;;;4.90;2.85;;;;;;;;;;8351819;28;20053;-77
2022/05/01 15:08:14;;;;;;;5.47;2.90;;;;;;;;;;8360798;28;20124;-76
2022/05/01 15:12:18;;;;;;;6.70;2.55;;;;;;;;;;8360377;28;20049;-78
2022/05/01 15:16:42;;;;;;;6.50;3.67;;;;;;;;;;8360235;28;20482;-77
2022/05/01 15:21:01;;;;;;;7.13;2.90;;;;;;;;;;8359914;28;20136;-77
2022/05/01 15:25:18;;;;;;;6.72;2.88;;;;;;;;;;8360266;28;20053;-76
2022/05/01 15:34:33;;;;;;;4.85;2.92;;;;;;;;;;8361210;28;20077;-77
2022/05/01 15:39:00;;;;;;;4.80;3.20;;;;;;;;;;8358954;28;20053;-76
2022/05/01 15:43:13;;;;;;;5.47;2.92;;;;;;;;;;8358972;28;20386;-77
2022/05/01 15:47:33;;;;;;;5.20;2.70;;;;;;;;;;8359242;28;20095;-77
2022/05/01 15:56:15;;;;;;;7.35;3.20;;;;;;;;;;8358684;28;20459;-77
2022/05/01 16:00:22;;;;;;;6.95;2.65;;;;;;;;;;8358913;28;20523;-77
2022/05/01 16:04:28;;;;;;;8.40;2.80;;;;;;;;;;8359006;28;20052;-76
2022/05/01 16:08:41;;;;;;;;;;;;;;;;;;8359398;28;20136;-76
2022/05/01 16:13:00;;;;;;;5.35;2.78;;;;;;;;;;8358368;28;19928;-77
2022/05/01 16:17:33;;;;;;;4.88;2.95;;;;;;;;;;8349936;28;20056;-76
2022/05/01 16:21:49;;;;;;;6.10;3.40;;;;;;;;;;8357687;28;20052;-77
2022/05/01 16:25:55;;;;;;;3.92;2.67;;;;;;;;;;8357066;28;20080;-78
2022/05/01 16:30:02;;;;;;;3.85;2.70;;;;;;;;;;8354308;28;20049;-76
2022/05/01 16:34:14;;;;;;;9.27;3.55;;;;;;;;;;8356375;28;20133;-76
2022/05/01 16:38:18;;;;;;;7.32;3.72;;;;;;;;;;8358404;28;20564;-78
2022/05/01 16:42:21;;;;;;;5.32;3.40;;;;;;;;;;8358432;28;20075;-77
2022/05/01 16:46:28;;;;;;;53.58;24.77;;;;;;;;;;8357769;28;20052;-78
2022/05/01 16:50:34;;;;;;;6.70;3.33;;;;;;;;;;8361330;28;20075;-77
2022/05/01 16:54:39;;;;;;;13.40;4.40;;;;;;;;;;8364469;28;20048;-77
2022/05/01 16:58:43;;;;;;;9.40;5.30;;;;;;;;;;8364416;28;20061;-77
2022/05/01 17:02:59;;;;;;;14.32;6.80;;;;;;;;;;8364602;28;20052;-76
2022/05/01 17:07:14;;;;;;;7.68;5.55;;;;;;;;;;8363792;28;20420;-78
2022/05/01 17:11:23;;;;;;;20.80;11.63;;;;;;;;;;8364290;28;20049;-76
2022/05/01 17:15:30;;;;;;;26.55;13.90;;;;;;;;;;8364312;28;20052;-77
2022/05/01 17:19:37;;;;;;;44.42;25.65;;;;;;;;;;8364440;28;20482;-78
2022/05/01 17:23:48;;;;;;;47.88;26.35;;;;;;;;;;8363593;28;20080;-77
2022/05/01 17:27:53;;;;;;;17.58;9.57;;;;;;;;;;8363848;28;20140;-77
2022/05/01 17:32:01;;;;;;;38.75;23.00;;;;;;;;;;8364024;28;20138;-77
2022/05/01 17:36:06;;;;;;;22.83;12.75;;;;;;;;;;8363306;28;20052;-77
2022/05/01 17:40:17;;;;;;;20.27;12.55;;;;;;;;;;8362462;28;20056;-79
2022/05/01 17:44:22;;;;;;;29.30;16.92;;;;;;;;;;8362312;28;20043;-77
2022/05/01 17:48:27;;;;;;;19.42;12.40;;;;;;;;;;8361948;28;20124;-78
2022/05/01 17:52:34;;;;;;;8.27;4.65;;;;;;;;;;8361831;28;20144;-77
2022/05/01 17:56:40;;;;;;;17.58;9.32;;;;;;;;;;8359379;28;20071;-76
2022/05/01 18:01:00;;;;;;;24.75;15.93;;;;;;;;;;8361817;28;20059;-77
2022/05/01 18:10:37;;;;;;;76.65;38.53;;;;;;;;;;8356163;28;20491;-78
2022/05/01 18:15:07;;;;;;;22.67;13.25;;;;;;;;;;8362617;28;20297;-77
2022/05/01 18:19:22;;;;;;;28.00;18.00;;;;;;;;;;8341769;28;20041;-77
2022/05/01 18:23:57;;;;;;;38.47;21.23;;;;;;;;;;8341584;28;20059;-78
2022/05/01 18:28:27;;;;;;;56.30;24.02;;;;;;;;;;8361355;28;20060;-78
2022/05/01 18:33:26;;;;;;;16.42;7.45;;;;;;;;;;8351239;28;20485;-77
2022/05/01 18:37:41;;;;;;;8.00;4.80;;;;;;;;;;8333357;28;20059;-78
2022/05/01 18:41:53;;;;;;;8.88;5.82;;;;;;;;;;8336534;28;20136;-77
2022/05/01 18:46:15;;;;;;;14.40;8.82;;;;;;;;;;8352932;28;20037;-76
2022/05/01 18:50:24;;;;;;;26.52;15.43;;;;;;;;;;8334127;28;20085;-77
2022/05/01 18:54:45;;;;;;;29.50;15.13;;;;;;;;;;8341003;28;20057;-75
2022/05/01 18:59:03;;;;;;;21.02;11.82;;;;;;;;;;8328409;28;20088;-76
2022/05/01 19:03:17;;;;;;;14.70;8.68;;;;;;;;;;8336120;28;20485;-76
2022/05/01 19:07:43;;;;;;;11.40;6.38;;;;;;;;;;8348813;28;20492;-75
2022/05/01 19:12:18;;;;;;;11.88;6.63;;;;;;;;;;8349304;28;20137;-74
2022/05/01 19:16:37;;;;;;;9.68;5.82;;;;;;;;;;8338493;28;20053;-74
2022/05/01 19:20:55;;;;;;;10.32;7.25;;;;;;;;;;8344948;28;20660;-77
2022/05/01 19:29:49;;;;;;;10.90;5.93;;;;;;;;;;8352789;28;20041;-76
2022/05/01 19:34:04;;;;;;;11.82;6.72;;;;;;;;;;8351336;28;20092;-77
2022/05/01 19:38:25;;;;;;;12.98;7.15;;;;;;;;;;8354115;28;20041;-79
2022/05/01 19:42:52;;;;;;;11.70;5.93;;;;;;;;;;8352706;28;20079;-76
2022/05/01 19:56:05;;;;;;;10.23;5.28;;;;;;;;;;8330098;28;20132;-76
2022/05/01 20:00:23;;;;;;;12.43;7.68;;;;;;;;;;8351583;28;20493;-75
2022/05/01 20:04:32;;;;;;;25.10;15.35;;;;;;;;;;8349445;28;20056;-77
2022/05/01 20:08:43;;;;;;;11.50;6.40;;;;;;;;;;8344733;28;20492;-77
2022/05/01 20:12:48;;;;;;;12.30;5.75;;;;;;;;;;8352721;28;20503;-77
2022/05/01 20:16:57;;;;;;;8.50;4.97;;;;;;;;;;8346476;28;20037;-77
2022/05/01 20:21:06;;;;;;;6.47;4.50;;;;;;;;;;8345703;28;20409;-75
2022/05/01 20:25:25;;;;;;;7.95;5.10;;;;;;;;;;8352675;28;20051;-75
2022/05/01 20:29:38;;;;;;;13.25;7.30;;;;;;;;;;8352720;28;20090;-74
2022/05/01 20:33:50;;;;;;;11.50;7.00;;;;;;;;;;8343627;28;20044;-76
2022/05/01 20:38:09;;;;;;;72.90;31.10;;;;;;;;;;8362925;28;20045;-75
2022/05/01 20:42:18;;;;;;;24.25;12.93;;;;;;;;;;8369985;28;20045;-76
2022/05/01 20:46:23;;;;;;;31.83;18.55;;;;;;;;;;8369349;28;20404;-76
2022/05/01 20:50:32;;;;;;;12.55;7.82;;;;;;;;;;8343376;28;20053;-76
2022/05/01 20:54:42;;;;;;;26.58;16.77;;;;;;;;;;8347252;28;20041;-77
2022/05/01 20:58:47;;;;;;;13.32;8.60;;;;;;;;;;8368848;28;20496;-78
2022/05/01 21:02:52;;;;;;;7.90;5.65;;;;;;;;;;8369268;28;20501;-75
2022/05/01 21:06:57;;;;;;;11.75;6.90;;;;;;;;;;8368894;28;20053;-78
2022/05/01 21:11:01;;;;;;;25.77;13.55;;;;;;;;;;8368250;28;20133;-78
2022/05/01 21:15:05;;;;;;;14.48;8.85;;;;;;;;;;8352490;28;20056;-76
2022/05/01 21:19:08;;;;;;;14.65;9.52;;;;;;;;;;8340839;28;20119;-77
2022/05/01 21:23:11;;;;;;;16.73;9.43;;;;;;;;;;8359052;28;20147;-76
2022/05/01 21:27:15;;;;;;;17.90;9.43;;;;;;;;;;8367783;28;20546;-78
2022/05/01 21:35:41;;;;;;;12.18;6.20;;;;;;;;;;8359927;28;20041;-75
2022/05/01 21:39:44;;;;;;;10.35;5.60;;;;;;;;;;8368169;28;20496;-78
2022/05/01 21:43:48;;;;;;;10.60;5.70;;;;;;;;;;8363497;28;20045;-74
2022/05/01 21:47:51;;;;;;;9.50;5.80;;;;;;;;;;8363090;28;20055;-75
2022/05/01 21:51:53;;;;;;;8.65;5.47;;;;;;;;;;8366890;28;20052;-77
2022/05/01 21:55:58;;;;;;;9.48;5.45;;;;;;;;;;8366923;28;20056;-77
2022/05/01 22:00:04;;;;;;;12.00;7.05;;;;;;;;;;8342968;28;20053;-76
2022/05/01 22:04:10;;;;;;;10.73;6.22;;;;;;;;;;8341315;28;20095;-76
2022/05/01 22:08:13;;;;;;;10.55;6.63;;;;;;;;;;8343789;28;20045;-74
2022/05/01 22:12:15;;;;;;;17.88;10.52;;;;;;;;;;8335505;28;20041;-75
2022/05/01 22:16:19;;;;;;;14.15;6.30;;;;;;;;;;8340690;28;20056;-77
2022/05/01 22:20:24;;;;;;;11.15;6.05;;;;;;;;;;8366207;28;20063;-75
2022/05/01 22:24:26;;;;;;;10.93;6.07;;;;;;;;;;8366011;28;20082;-76
2022/05/01 22:28:29;;;;;;;11.93;6.22;;;;;;;;;;8364233;28;20055;-79
2022/05/01 22:32:33;;;;;;;11.35;7.05;;;;;;;;;;8366656;28;20072;-76
2022/05/01 22:40:52;;;;;;;28.83;16.75;;;;;;;;;;8307670;28;20053;-76
2022/05/01 22:44:55;;;;;;;49.20;27.05;;;;;;;;;;8333546;28;20045;-76
2022/05/01 22:48:58;;;;;;;;;;;;;;;;;;8333526;28;20054;-77
2022/05/01 22:53:01;;;;;;;13.30;7.57;;;;;;;;;;8333732;28;19932;-76
2022/05/01 22:57:04;;;;;;;15.93;8.48;;;;;;;;;;8357727;28;20044;-76
2022/05/01 23:01:09;;;;;;;13.88;7.97;;;;;;;;;;8364500;28;20111;-76
2022/05/01 23:05:14;;;;;;;14.02;7.60;;;;;;;;;;8362042;28;20045;-76
2022/05/01 23:09:17;;;;;;;13.98;7.32;;;;;;;;;;8350122;28;20052;-75
2022/05/01 23:13:19;;;;;;;13.77;6.70;;;;;;;;;;8365095;28;20049;-75
2022/05/01 23:17:22;;;;;;;15.32;7.45;;;;;;;;;;8343759;28;20053;-74
2022/05/01 23:21:26;;;;;;;12.13;7.82;;;;;;;;;;8332426;28;20455;-76
2022/05/01 23:25:29;;;;;;;11.73;6.65;;;;;;;;;;8340489;28;20049;-75
2022/05/01 23:33:49;;;;;;;14.43;8.45;;;;;;;;;;8364234;28;20045;-77
2022/05/01 23:37:52;;;;;;;;;;;;;;;;;;8364491;28;20071;-76
2022/05/01 23:41:55;;;;;;;87.65;47.75;;;;;;;;;;8336744;28;20410;-76
2022/05/01 23:45:57;;;;;;;;;;;;;;;;;;8355293;28;20090;-76
2022/05/01 23:49:59;;;;;;;35.92;19.48;;;;;;;;;;8364763;28;20334;-76
2022/05/01 23:54:03;;;;;;;18.42;11.02;;;;;;;;;;8357224;28;20075;-76
2022/05/01 23:58:12;;;;;;;15.80;9.57;;;;;;;;;;8330389;28;20057;-76
